Dundee, OR

11:23 AM PDT on October 20, 2014 (GMT -0700)
Dundee Hills | Change Station
CLOSE
Current Station
Personal Weather Station
Location: Dundee, OR
Elevation: 440 ft
Nearby Weather Stations

Elev 440 ft 45.29 °N, 123.02 °W | Updated 10 seconds ago

Mostly Cloudy
Mostly Cloudy
57.8 °F
Feels Like 57.8 °F
N
5.0
Wind Variable Wind from SSE
Gusts 11.0 mph

Today
High -- | Low -- °F
--% Chance of Precip.
Yesterday
High -- | Low -- °F
Precip. -- in
7:34 AM 6:18 PM
Waning Crescent, 10% visible
Pressure 29.81 in
Visibility 10.0 miles
Clouds Scattered Clouds 1600 ft
Mostly Cloudy 5000 ft
Overcast 9000 ft
Dew Point 56 °F
Humidity 94%
Rainfall 0.09 in
Snow Depth Not available.
UV 1 out of 12
Pollen .30 out of 12
Air Quality Not available.
Flu Activity Sporadic
SPECI KUAO 201805Z AUTO 17008KT 10SM -RA SCT016 BKN050 OVC090 14/13 A2981 RMK AO2 P0000 T01440133

More Conditions Fewer Conditions

Pressure 29.81 in
Visibility 10.0 miles
Clouds Scattered Clouds 1600 ft
Mostly Cloudy 5000 ft
Overcast 9000 ft
Dew Point 56 °F
Humidity 94%
Rainfall 0.09 in
Snow Depth Not available.
UV 1 out of 12
Pollen .30 out of 12
Air Quality Not available.
Flu Activity Sporadic
SPECI KUAO 201805Z AUTO 17008KT 10SM -RA SCT016 BKN050 OVC090 14/13 A2981 RMK AO2 P0000 T01440133

More Conditions Fewer Conditions

10-Day Weather Forecast

Almanac

Astronomy

Oct. 20, 2014 Rise Set
Actual Time 7:34 AM PDT 6:18 PM PDT
Civil Twilight 7:04 AM PDT 6:48 PM PDT
Nautical Twilight 6:30 AM PDT 7:22 PM PDT
Astronomical Twilight 5:56 AM PDT 7:56 PM PDT
Moon 4:19 AM PDT 4:50 PM PDT
Length of Visible Light 11h 43m
Length of Day
10h 43m
Waning Crescent, 10% of the Moon is Illuminated
Today
Waning Crescent
Oct 23
New
Oct 30
First Quarter
Nov 6
Full
Nov 14
Last Quarter

Today's Extremes

State Highs State Lows

Community

WunderPhotos

Upload Photos

1,763,456 photos uploaded!

Nearby

Snow Depth

Station Depth Elevation
Seine Creek 0 in 2000 ft
North Fork 0 in 3120 ft
Peavine Ridge 0 in 3500 ft
Mud Ridge 0 in 3800 ft
Clackamas Lake 0 in 3400 ft

Earthquake Activity

City Distance Mag. Time & Date
No recent earthquake activity has been reported nearby.
Minimum magnitude displayed is 2.5.

Coastal Water Temperatures

Place Temperature
No Stations Reporting

Nearby Weather Stations